Time;durP1;ratioP1;P1;durP2;ratioP2;P2;SDS_P1;SDS_P2;PMS_P1;PMS_P2;Temp;Humidity;BMP_temperature;BMP_pressure;BME280_temperature;BME280_humidity;BME280_pressure;Samples;Min_cycle;Max_cycle;Signal;HPM_P1;HPM_P2
2022/03/13 00:01:48;;;;;;;;;57.60;45.60;;;;;6.05;26.58;99860.06;6282380;27;96898;-62
2022/03/13 00:04:56;;;;;;;;;63.60;48.00;;;;;6.05;26.79;99863.56;6278931;27;97781;-63
2022/03/13 00:08:02;;;;;;;;;57.75;46.00;;;;;6.09;26.63;99854.19;6279950;27;97427;-63
2022/03/13 00:11:08;;;;;;;;;60.00;46.00;;;;;6.06;27.36;99862.53;6280984;27;96634;-62
2022/03/13 00:14:13;;;;;;;;;60.20;46.00;;;;;5.99;27.22;99864.25;6284197;27;96726;-63
2022/03/13 00:17:16;;;;;;;;;62.00;48.00;;;;;5.94;27.61;99871.09;6281351;27;97467;-63
2022/03/13 00:20:22;;;;;;;;;61.50;47.00;;;;;5.84;27.90;99863.22;6288403;27;99497;-62
2022/03/13 00:23:27;;;;;;;;;65.00;49.50;;;;;5.88;27.63;99861.06;6290432;27;97361;-62
2022/03/13 00:26:30;;;;;;;;;61.40;46.00;;;;;5.85;28.11;99861.38;6288662;27;96690;-62
2022/03/13 00:29:34;;;;;;;;;62.00;47.00;;;;;5.78;28.24;99853.16;6288779;27;96795;-62
2022/03/13 00:32:37;;;;;;;;;56.00;44.00;;;;;5.67;29.11;99856.16;6287697;27;97413;-61
2022/03/13 00:35:40;;;;;;;;;60.25;45.75;;;;;5.61;29.14;99856.84;6290407;27;97368;-63
2022/03/13 00:38:46;;;;;;;;;60.75;45.75;;;;;5.42;29.56;99838.47;6289280;27;97059;-64
2022/03/13 00:41:49;;;;;;;;;57.00;44.00;;;;;5.49;29.76;99853.66;6287789;27;97069;-63
2022/03/13 00:44:52;;;;;;;;;58.75;44.25;;;;;5.41;29.66;99851.00;6284508;27;98116;-62
2022/03/13 00:47:56;;;;;;;;;57.00;45.00;;;;;5.37;30.39;99848.81;6286320;27;96713;-62
2022/03/13 00:51:00;;;;;;;;;58.40;45.00;;;;;5.31;30.58;99844.13;6290073;27;97516;-61
2022/03/13 00:54:08;;;;;;;;;56.00;44.00;;;;;5.26;30.80;99849.13;6290477;27;96433;-64
2022/03/13 00:57:11;;;;;;;;;55.20;43.00;;;;;5.23;30.95;99853.78;6284374;27;97310;-63
2022/03/13 01:00:16;;;;;;;;;56.60;44.20;;;;;5.18;31.50;99850.75;6289500;27;97431;-64
2022/03/13 01:03:31;;;;;;;;;59.00;44.80;;;;;5.12;31.18;99850.59;6283415;27;97379;-63
2022/03/13 01:06:35;;;;;;;;;54.00;42.00;;;;;5.02;31.43;99855.25;6289885;27;96941;-63
2022/03/13 01:09:39;;;;;;;;;53.40;42.00;;;;;4.87;31.68;99848.84;6289608;27;96729;-63
2022/03/13 01:12:43;;;;;;;;;57.00;43.00;;;;;4.75;31.83;99851.81;6289121;27;97924;-63
2022/03/13 01:15:48;;;;;;;;;52.20;43.00;;;;;4.49;32.29;99847.53;6288339;27;97546;-63
2022/03/13 01:18:53;;;;;;;;;55.00;42.40;;;;;4.53;32.32;99846.22;6268875;27;96617;-63
2022/03/13 01:21:57;;;;;;;;;50.60;41.00;;;;;4.38;32.57;99837.13;6289641;27;97392;-62
2022/03/13 01:25:01;;;;;;;;;52.00;41.00;;;;;4.43;32.54;99835.66;6288328;27;97511;-63
2022/03/13 01:28:05;;;;;;;;;56.50;44.00;;;;;4.42;32.84;99833.13;6285296;27;96975;-63
2022/03/13 01:31:08;;;;;;;;;55.00;42.00;;;;;4.35;33.64;99833.75;6288385;27;96648;-62
2022/03/13 01:34:13;;;;;;;;;54.00;43.20;;;;;4.31;33.29;99832.41;6289508;27;96619;-64
2022/03/13 01:37:28;;;;;;;;;56.25;43.00;;;;;4.14;33.58;99817.31;6282708;27;97458;-64
2022/03/13 01:40:34;;;;;;;;;55.20;44.00;;;;;4.11;33.67;99827.44;6286501;27;98880;-63
2022/03/13 01:43:38;;;;;;;;;55.00;44.00;;;;;4.03;34.00;99825.56;6279808;27;97289;-63
2022/03/13 01:46:41;;;;;;;;;63.00;49.00;;;;;4.09;33.73;99813.44;6284930;27;96454;-62
2022/03/13 01:49:47;;;;;;;;;61.80;48.00;;;;;4.15;33.46;99804.81;6286267;27;96921;-63
2022/03/13 01:52:50;;;;;;;;;61.00;48.00;;;;;4.14;33.48;99806.63;6286385;27;96649;-63
2022/03/13 01:55:57;;;;;;;;;64.00;47.60;;;;;4.10;33.78;99804.44;6286215;27;97051;-63
2022/03/13 01:59:00;;;;;;;;;64.50;49.25;;;;;4.01;34.17;99802.72;6287530;27;97416;-64
2022/03/13 02:02:04;;;;;;;;;64.00;48.40;;;;;3.95;34.05;99801.50;6288218;27;97379;-63
2022/03/13 02:05:26;;;;;;;;;64.75;49.25;;;;;3.86;34.34;99802.47;6288147;27;96547;-63
2022/03/13 02:08:29;;;;;;;;;63.00;48.80;;;;;3.74;34.77;99799.19;6287952;27;97034;-63
2022/03/13 02:11:38;;;;;;;;;65.00;48.00;;;;;3.64;34.77;99800.28;6288046;27;97623;-63
2022/03/13 02:14:41;;;;;;;;;62.00;46.00;;;;;3.53;34.76;99796.03;6286659;27;96700;-64
2022/03/13 02:17:47;;;;;;;;;62.80;48.00;;;;;3.45;35.16;99795.97;6287361;27;97595;-63
2022/03/13 02:20:50;;;;;;;;;63.60;48.00;;;;;3.34;35.60;99783.72;6296584;27;97203;-63
2022/03/13 02:23:57;;;;;;;;;63.40;48.40;;;;;3.23;35.64;99797.28;6287322;27;96277;-63
2022/03/13 02:27:04;;;;;;;;;63.40;49.20;;;;;3.23;35.79;99797.28;6276739;27;97123;-63
2022/03/13 02:30:09;;;;;;;;;62.75;47.00;;;;;3.27;35.23;99797.81;6286487;27;97390;-63
2022/03/13 02:33:12;;;;;;;;;63.00;49.60;;;;;3.30;35.50;99801.00;6299537;27;97463;-63
2022/03/13 02:36:24;;;;;;;;;67.50;50.50;;;;;3.39;34.66;99797.41;6275271;27;97202;-63
2022/03/13 02:39:32;;;;;;;;;69.60;51.80;;;;;3.50;34.41;99801.69;6267967;27;99687;-63
2022/03/13 02:42:36;;;;;;;;;66.75;51.00;;;;;3.52;34.36;99796.19;6287226;27;97449;-62
2022/03/13 02:45:39;;;;;;;;;69.60;51.80;;;;;3.61;34.69;99796.13;6275916;27;97069;-63
2022/03/13 02:48:43;;;;;;;;;69.40;52.20;;;;;3.64;34.47;99793.13;6286857;27;97002;-62
2022/03/13 02:51:48;;;;;;;;;67.00;50.00;;;;;3.73;34.23;99794.00;6286467;27;96682;-62
2022/03/13 02:54:52;;;;;;;;;68.20;51.40;;;;;3.77;34.38;99800.69;6287414;27;97084;-62
2022/03/13 02:57:56;;;;;;;;;73.00;53.00;;;;;3.84;34.00;99801.75;6284809;27;98206;-61
2022/03/13 03:00:59;;;;;;;;;69.20;51.00;;;;;3.88;33.94;99795.97;6285758;27;97410;-62
2022/03/13 03:04:03;;;;;;;;;70.00;52.00;;;;;3.85;33.97;99804.28;6286149;27;97101;-62
2022/03/13 03:07:07;;;;;;;;;70.40;52.00;;;;;3.75;34.51;99805.38;6281681;27;97746;-62
2022/03/13 03:10:13;;;;;;;;;68.60;50.80;;;;;3.68;34.27;99804.31;6284776;27;96515;-63
2022/03/13 03:13:17;;;;;;;;;70.00;52.00;;;;;3.58;34.69;99785.75;6282717;27;97345;-63
2022/03/13 03:16:21;;;;;;;;;71.00;53.00;;;;;3.68;34.76;99799.81;6286497;27;96436;-62
2022/03/13 03:19:26;;;;;;;;;70.00;52.00;;;;;3.70;34.28;99802.34;6268267;27;98619;-63
2022/03/13 03:22:29;;;;;;;;;70.00;53.00;;;;;3.74;34.01;99795.69;6285027;27;97393;-63
2022/03/13 03:25:34;;;;;;;;;67.40;52.20;;;;;3.76;33.82;99799.06;6282632;27;97523;-62
2022/03/13 03:28:37;;;;;;;;;71.80;53.00;;;;;3.78;33.76;99783.72;6284618;27;97463;-64
2022/03/13 03:31:42;;;;;;;;;70.00;52.40;;;;;3.85;33.81;99792.78;6281610;27;97288;-62
2022/03/13 03:34:49;;;;;;;;;70.40;54.00;;;;;3.87;33.79;99794.28;6282235;27;98048;-62
2022/03/13 03:37:55;;;;;;;;;68.40;52.60;;;;;3.82;33.56;99793.06;6284143;27;97067;-64
2022/03/13 03:41:00;;;;;;;;;68.60;53.40;;;;;3.77;33.70;99795.38;6293473;27;98345;-63
2022/03/13 03:44:03;;;;;;;;;74.25;57.25;;;;;3.73;32.86;99791.34;6268067;27;97924;-64
2022/03/13 03:47:06;;;;;;;;;69.80;53.80;;;;;3.65;33.23;99788.63;6273566;27;98105;-63
2022/03/13 03:50:10;;;;;;;;;72.60;54.60;;;;;3.66;33.09;99788.47;6289235;27;97217;-63
2022/03/13 03:53:13;;;;;;;;;72.40;53.00;;;;;3.69;32.66;99795.31;6290683;27;97483;-64
2022/03/13 03:56:18;;;;;;;;;72.00;55.60;;;;;3.74;33.29;99793.03;6290074;27;97890;-63
2022/03/13 03:59:23;;;;;;;;;71.00;53.00;;;;;3.74;33.29;99788.53;6289969;27;97034;-63
2022/03/13 04:02:26;;;;;;;;;67.00;52.00;;;;;3.75;33.38;99784.03;6288458;27;97790;-63
2022/03/13 04:05:30;;;;;;;;;72.00;54.20;;;;;3.75;32.93;99781.38;6273855;27;97027;-63
2022/03/13 04:08:33;;;;;;;;;70.00;53.00;;;;;3.76;33.05;99780.38;6284426;27;96681;-62
2022/03/13 04:11:38;;;;;;;;;72.80;55.40;;;;;3.76;33.26;99783.84;6287939;27;97582;-63
2022/03/13 04:14:42;;;;;;;;;71.67;52.67;;;;;3.77;33.47;99782.88;6285455;27;97119;-63
2022/03/13 04:17:45;;;;;;;;;71.80;54.80;;;;;3.78;32.83;99776.56;6290279;27;96896;-64
2022/03/13 04:20:48;;;;;;;;;66.40;51.00;;;;;3.80;32.70;99782.59;6287364;27;97162;-62
2022/03/13 04:23:52;;;;;;;;;72.20;52.20;;;;;3.84;32.74;99783.94;6290124;27;97096;-64
2022/03/13 04:26:57;;;;;;;;;67.25;52.50;;;;;3.86;32.97;99789.13;6290035;27;96324;-63
2022/03/13 04:30:00;;;;;;;;;70.20;52.00;;;;;3.88;33.02;99797.78;6272517;27;96414;-63
2022/03/13 04:33:03;;;;;;;;;69.00;53.00;;;;;3.85;33.29;99801.63;6287971;27;97342;-63
2022/03/13 04:36:13;;;;;;;;;71.20;54.00;;;;;3.85;32.89;99790.94;6278738;27;97411;-64
2022/03/13 04:39:17;;;;;;;;;67.60;52.40;;;;;3.87;32.85;99799.63;6278832;27;96832;-64
2022/03/13 04:42:22;;;;;;;;;71.00;52.50;;;;;3.84;33.12;99805.28;6287789;27;97950;-63
2022/03/13 04:45:26;;;;;;;;;68.25;52.25;;;;;3.78;33.60;99803.22;6288462;27;96673;-64
2022/03/13 04:48:32;;;;;;;;;71.60;53.00;;;;;3.72;33.19;99798.50;6287548;27;96955;-62
2022/03/13 04:51:36;;;;;;;;;68.40;51.40;;;;;3.71;33.44;99791.53;6289538;27;96325;-64
2022/03/13 04:54:40;;;;;;;;;66.20;51.00;;;;;3.67;33.32;99774.13;6288918;27;96646;-62
2022/03/13 04:57:45;;;;;;;;;67.80;51.80;;;;;3.71;33.36;99774.69;6287892;27;96685;-65
2022/03/13 05:00:48;;;;;;;;;67.00;51.75;;;;;3.72;33.08;99768.31;6270059;27;97741;-64
2022/03/13 05:03:51;;;;;;;;;66.80;50.00;;;;;3.79;32.87;99772.91;6285974;27;97525;-63
2022/03/13 05:06:56;;;;;;;;;65.00;50.60;;;;;3.83;33.13;99784.09;6282085;27;97627;-62
2022/03/13 05:10:00;;;;;;;;;67.00;50.00;;;;;3.86;33.39;99784.59;6287374;27;97199;-63
2022/03/13 05:13:06;;;;;;;;;67.00;50.00;;;;;3.88;33.21;99787.97;6284459;27;99492;-64
2022/03/13 05:16:10;;;;;;;;;67.50;51.00;;;;;3.88;33.14;99795.13;6300501;27;98113;-63
2022/03/13 05:19:13;;;;;;;;;66.00;50.00;;;;;3.88;33.50;99795.97;6285660;27;97074;-63
2022/03/13 05:22:18;;;;;;;;;66.00;51.00;;;;;3.89;34.09;99804.81;6286509;27;97628;-63
2022/03/13 05:25:23;;;;;;;;;67.20;51.00;;;;;3.89;33.43;99800.31;6299867;27;97111;-63
2022/03/13 05:28:28;;;;;;;;;67.00;51.00;;;;;3.88;34.05;99803.13;6284047;27;97160;-63
2022/03/13 05:31:31;;;;;;;;;68.00;51.00;;;;;3.82;34.15;99812.59;6280763;27;98561;-63
2022/03/13 05:34:37;;;;;;;;;66.40;49.00;;;;;3.75;34.26;99808.03;6285767;27;96797;-63
2022/03/13 05:37:40;;;;;;;;;63.20;47.40;;;;;3.77;34.27;99804.22;6299962;27;97417;-63
2022/03/13 05:40:48;;;;;;;;;62.00;48.00;;;;;3.83;34.87;99808.94;6284526;27;97421;-62
2022/03/13 05:43:53;;;;;;;;;64.00;50.00;;;;;3.93;34.65;99819.50;6288371;27;97130;-62
2022/03/13 05:46:56;;;;;;;;;65.33;49.33;;;;;4.03;34.85;99809.56;6287431;27;100343;-64
2022/03/13 05:50:00;;;;;;;;;65.40;50.00;;;;;4.21;34.62;99814.81;6275997;27;97751;-63
2022/03/13 05:53:04;;;;;;;;;65.00;50.00;;;;;4.31;34.32;99819.06;6287346;27;97106;-63
2022/03/13 05:56:07;;;;;;;;;66.20;50.20;;;;;4.45;34.79;99817.59;6287121;27;97100;-62
2022/03/13 05:59:11;;;;;;;;;62.80;48.00;;;;;4.60;34.43;99821.34;6267935;27;97760;-63
2022/03/13 06:02:15;;;;;;;;;67.00;48.00;;;;;4.77;34.35;99822.25;6285552;27;97237;-62
2022/03/13 06:05:20;;;;;;;;;68.00;52.00;;;;;4.92;34.31;99826.00;6283869;27;99626;-62
2022/03/13 06:08:24;;;;;;;;;64.50;50.00;;;;;5.05;34.12;99817.50;6286257;27;96768;-63
2022/03/13 06:11:27;;;;;;;;;64.25;50.00;;;;;5.20;34.00;99819.38;6293207;27;97291;-62
2022/03/13 06:14:32;;;;;;;;;64.60;49.20;;;;;5.27;34.62;99822.22;6287040;27;97429;-64
2022/03/13 06:17:39;;;;;;;;;66.60;50.00;;;;;5.42;34.20;99823.25;6276574;27;96748;-63
2022/03/13 06:20:43;;;;;;;;;63.00;49.00;;;;;5.56;34.33;99824.41;6279711;27;97582;-64
2022/03/13 06:23:46;;;;;;;;;65.60;48.00;;;;;5.68;34.25;99817.72;6283564;27;97288;-64
2022/03/13 06:26:49;;;;;;;;;66.40;49.40;;;;;5.80;34.61;99820.91;6286803;27;97383;-63
2022/03/13 06:29:54;;;;;;;;;59.20;47.40;;;;;5.90;34.61;99825.09;6279374;27;97121;-64
2022/03/13 06:32:57;;;;;;;;;60.00;48.00;;;;;6.00;34.27;99820.41;6279240;27;97323;-63
2022/03/13 06:36:01;;;;;;;;;61.60;48.00;;;;;6.13;34.14;99830.59;6284969;27;96991;-63
2022/03/13 06:39:04;;;;;;;;;62.40;46.40;;;;;6.28;34.09;99836.91;6285530;27;97503;-63
2022/03/13 06:42:09;;;;;;;;;60.00;46.00;;;;;6.33;34.60;99836.41;6285334;27;96613;-63
2022/03/13 06:45:14;;;;;;;;;65.60;50.00;;;;;6.39;34.36;99841.06;6272755;27;97164;-63
2022/03/13 06:48:21;;;;;;;;;66.40;50.00;;;;;6.39;34.45;99847.28;6284537;27;97085;-63
2022/03/13 06:51:25;;;;;;;;;69.00;51.00;;;;;6.52;34.00;99847.56;6285905;27;96583;-64
2022/03/13 06:54:28;;;;;;;;;67.60;51.00;;;;;6.65;33.75;99855.03;6283828;27;96658;-63
2022/03/13 06:57:31;;;;;;;;;67.25;52.00;;;;;6.84;33.02;99843.09;6286692;27;96546;-64
2022/03/13 07:00:36;;;;;;;;;72.00;53.60;;;;;7.02;33.22;99849.03;6284992;27;96774;-63
2022/03/13 07:03:42;;;;;;;;;69.80;53.20;;;;;7.24;32.54;99842.03;6286969;27;96670;-63
2022/03/13 07:06:45;;;;;;;;;68.20;52.40;;;;;7.45;32.61;99852.97;6286373;27;96419;-64
2022/03/13 07:09:49;;;;;;;;;72.00;54.00;;;;;7.65;32.00;99851.47;6286714;27;96420;-64
2022/03/13 07:12:57;;;;;;;;;74.20;53.40;;;;;7.80;31.72;99841.63;6286336;27;97468;-63
2022/03/13 07:16:03;;;;;;;;;71.80;53.00;;;;;7.90;31.28;99845.91;6282829;27;97843;-64
2022/03/13 07:19:06;;;;;;;;;69.00;52.00;;;;;7.99;31.31;99851.03;6274993;27;97462;-64
2022/03/13 07:22:10;;;;;;;;;68.60;53.20;;;;;8.04;31.35;99855.84;6285275;27;97425;-63
2022/03/13 07:25:14;;;;;;;;;73.00;56.40;;;;;8.14;30.47;99853.75;6286155;27;97183;-64
2022/03/13 07:28:18;;;;;;;;;71.20;53.60;;;;;8.30;30.31;99855.47;6287662;27;97415;-64
2022/03/13 07:31:23;;;;;;;;;72.25;56.00;;;;;8.38;30.02;99855.38;6289031;27;96897;-62
2022/03/13 07:34:28;;;;;;;;;71.00;54.60;;;;;8.45;30.20;99846.41;6289918;27;96868;-63
2022/03/13 07:37:31;;;;;;;;;70.25;53.75;;;;;8.55;29.87;99846.13;6288178;27;97506;-63
2022/03/13 07:40:34;;;;;;;;;70.00;55.00;;;;;8.59;30.04;99836.69;6289540;27;97387;-63
2022/03/13 07:43:38;;;;;;;;;68.00;52.50;;;;;8.70;30.15;99852.31;6288828;27;96993;-64
2022/03/13 07:46:44;;;;;;;;;70.00;54.00;;;;;8.90;30.45;99848.03;6289549;27;98150;-63
2022/03/13 07:49:47;;;;;;;;;70.60;52.80;;;;;9.10;29.86;99843.75;6285126;27;97227;-63
2022/03/13 07:52:51;;;;;;;;;70.00;53.00;;;;;9.34;29.61;99853.31;6302557;27;97047;-64
2022/03/13 07:55:54;;;;;;;;;74.00;55.00;;;;;9.54;29.06;99851.69;6287995;27;96787;-63
2022/03/13 07:58:58;;;;;;;;;72.00;54.00;;;;;9.76;28.58;99843.63;6283578;27;96756;-64
2022/03/13 08:02:03;;;;;;;;;71.40;53.00;;;;;10.04;28.09;99835.56;6288701;27;97713;-63
2022/03/13 08:05:07;;;;;;;;;70.00;52.40;;;;;10.22;27.42;99842.16;6290204;27;96772;-64
2022/03/13 08:08:11;;;;;;;;;69.00;53.60;;;;;10.37;27.25;99837.50;6276907;27;99184;-64
2022/03/13 08:11:14;;;;;;;;;68.00;52.20;;;;;10.60;26.74;99836.41;6284944;27;97931;-63
2022/03/13 08:14:17;;;;;;;;;67.00;51.00;;;;;10.88;26.08;99841.72;6280063;27;97145;-66
2022/03/13 08:17:22;;;;;;;;;68.00;52.00;;;;;11.28;25.90;99846.25;6282485;27;97476;-64
2022/03/13 08:20:25;;;;;;;;;70.00;52.00;;;;;11.65;25.06;99845.72;6281995;27;97099;-65
2022/03/13 08:23:28;;;;;;;;;74.40;57.00;;;;;11.94;25.62;99847.22;6284034;27;96961;-64
2022/03/13 08:26:32;;;;;;;;;74.20;57.80;;;;;12.20;24.96;99851.81;6275616;27;96894;-64
2022/03/13 08:29:35;;;;;;;;;70.00;53.40;;;;;12.49;24.48;99850.53;6280276;27;97332;-64
2022/03/13 08:32:40;;;;;;;;;70.00;53.00;;;;;12.77;23.73;99842.97;6288457;27;97552;-64
2022/03/13 08:35:43;;;;;;;;;71.60;56.80;;;;;13.01;23.49;99842.25;6276740;27;97291;-64
2022/03/13 08:38:46;;;;;;;;;76.40;61.00;;;;;13.15;22.95;99839.53;6272191;27;98592;-65
2022/03/13 08:41:49;;;;;;;;;76.00;61.40;;;;;13.28;23.21;99839.50;6283361;27;96978;-65
2022/03/13 08:44:53;;;;;;;;;73.50;57.00;;;;;13.49;22.95;99851.88;6279378;27;97481;-65
2022/03/13 08:47:58;;;;;;;;;77.00;64.50;;;;;13.92;22.59;99838.47;6276445;27;98519;-64
2022/03/13 08:51:01;;;;;;;;;78.40;64.80;;;;;14.42;21.90;99831.16;6284955;27;97728;-63
2022/03/13 08:54:04;;;;;;;;;76.00;61.00;;;;;15.05;21.00;99821.69;6268686;27;97540;-63
2022/03/13 08:57:08;;;;;;;;;76.00;58.00;;;;;15.68;20.94;99825.88;6270848;27;98540;-63
2022/03/13 09:00:14;;;;;;;;;78.00;64.50;;;;;16.61;19.87;99837.75;6284018;27;97943;-63
2022/03/13 09:03:19;;;;;;;;;75.25;61.25;;;;;17.19;19.21;99825.91;6284190;27;96559;-64
2022/03/13 09:06:22;;;;;;;;;72.60;57.00;;;;;18.21;18.26;99821.25;6277971;27;97327;-64
2022/03/13 09:09:25;;;;;;;;;75.40;60.40;;;;;19.27;17.56;99819.19;6279022;27;97407;-64
2022/03/13 09:12:30;;;;;;;;;78.80;64.80;;;;;20.24;17.37;99819.06;6286305;27;97303;-64
2022/03/13 09:15:34;;;;;;;;;74.00;59.80;;;;;20.54;16.55;99815.75;6295524;27;97441;-64
2022/03/13 09:18:39;;;;;;;;;73.75;56.00;;;;;20.07;16.36;99816.47;6279765;27;97034;-64
2022/03/13 09:21:44;;;;;;;;;67.50;52.50;;;;;19.77;16.75;99827.97;6281414;27;96789;-64
2022/03/13 09:24:47;;;;;;;;;67.60;51.00;;;;;19.34;16.49;99825.28;6275992;27;98152;-64
2022/03/13 09:27:52;;;;;;;;;66.60;50.00;;;;;19.11;16.92;99828.31;6284577;27;97460;-64
2022/03/13 09:30:55;;;;;;;;;64.00;49.40;;;;;18.63;16.95;99823.53;6270689;27;97775;-64
2022/03/13 09:34:00;;;;;;;;;62.00;48.00;;;;;18.44;16.74;99829.25;6280694;27;97888;-64
2022/03/13 09:37:04;;;;;;;;;60.80;46.00;;;;;18.37;17.29;99820.41;6273367;27;97484;-64
2022/03/13 09:40:10;;;;;;;;;61.60;48.00;;;;;18.30;16.71;99818.91;6262185;27;97429;-64
2022/03/13 09:43:13;;;;;;;;;58.40;46.40;;;;;18.76;16.54;99812.25;6282378;27;97304;-64
2022/03/13 09:46:17;;;;;;;;;59.75;45.00;;;;;20.10;15.18;99806.91;6277398;27;97106;-64
2022/03/13 09:49:24;;;;;;;;;60.00;45.00;;;;;20.90;15.17;99808.56;6278923;27;97570;-65
2022/03/13 09:52:27;;;;;;;;;58.00;46.00;;;;;21.88;14.65;99806.69;6281027;27;97321;-64
2022/03/13 09:55:31;;;;;;;;;55.60;44.60;;;;;22.59;13.58;99796.50;6276488;27;96617;-64
2022/03/13 09:58:35;;;;;;;;;50.00;41.00;;;;;23.21;13.23;99804.28;6277169;27;97481;-64
2022/03/13 10:01:38;;;;;;;;;51.60;40.60;;;;;23.47;12.17;99795.91;6260117;27;97748;-65
2022/03/13 10:04:43;;;;;;;;;46.75;37.00;;;;;23.53;12.23;99795.63;6285568;27;97177;-65
2022/03/13 10:07:54;;;;;;;;;39.60;34.60;;;;;23.69;11.68;99786.16;6276033;27;96722;-62
2022/03/13 10:10:59;;;;;;;;;33.00;28.80;;;;;23.94;10.67;99782.41;6277856;27;96530;-63
2022/03/13 10:14:07;;;;;;;;;38.20;32.20;;;;;24.02;11.11;99784.53;6282453;27;96677;-63
2022/03/13 10:17:26;;;;;;;;;45.40;36.20;;;;;24.39;11.35;99777.59;6276110;27;96572;-62
2022/03/13 10:20:30;;;;;;;;;38.00;32.00;;;;;24.91;10.61;99777.63;6285590;27;97058;-63
2022/03/13 10:23:37;;;;;;;;;33.50;30.00;;;;;25.09;9.78;99776.00;6282610;27;97331;-63
2022/03/13 10:26:41;;;;;;;;;37.75;32.00;;;;;25.38;10.24;99773.94;6280816;27;96580;-62
2022/03/13 10:29:47;;;;;;;;;39.40;32.00;;;;;25.63;10.09;99778.31;6273749;27;97135;-62
2022/03/13 10:32:56;;;;;;;;;40.00;32.00;;;;;26.07;9.99;99764.06;6287772;27;96495;-62
2022/03/13 10:36:09;;;;;;;;;31.00;28.20;;;;;25.71;9.37;99771.28;6281142;27;97475;-63
2022/03/13 10:39:20;;;;;;;;;33.40;30.00;;;;;25.82;9.44;99761.72;6289196;27;97394;-63
2022/03/13 10:42:30;;;;;;;;;32.50;29.50;;;;;26.24;9.45;99766.31;6287862;27;96612;-64
2022/03/13 10:45:37;;;;;;;;;31.20;27.80;;;;;26.37;8.98;99770.22;6253279;27;96628;-64
2022/03/13 10:48:47;;;;;;;;;30.40;26.00;;;;;25.19;9.24;99751.03;6281298;27;98259;-63
2022/03/13 10:51:51;;;;;;;;;25.20;22.00;;;;;24.70;9.44;99765.13;6294445;27;98184;-65
2022/03/13 10:54:56;;;;;;;;;24.80;22.00;;;;;24.64;9.53;99751.69;6278628;27;97951;-64
2022/03/13 10:57:59;;;;;;;;;22.60;20.40;;;;;25.24;9.44;99759.25;6282634;27;96686;-64
2022/03/13 11:01:05;;;;;;;;;22.33;19.00;;;;;25.69;8.55;99762.50;6280182;27;97457;-64
2022/03/13 11:04:09;;;;;;;;;18.00;17.00;;;;;25.49;8.23;99762.75;6283288;27;96617;-63
2022/03/13 11:07:14;;;;;;;;;17.00;15.60;;;;;25.62;7.69;99767.56;6282646;27;97498;-63
2022/03/13 11:10:17;;;;;;;;;17.25;14.00;;;;;25.98;7.68;99756.78;6275381;27;98019;-63
2022/03/13 11:13:21;;;;;;;;;17.00;16.00;;;;;26.47;7.95;99756.19;6277498;27;96908;-64
2022/03/13 11:16:26;;;;;;;;;17.00;16.00;;;;;26.80;7.47;99760.53;6272395;27;97813;-64
2022/03/13 11:19:31;;;;;;;;;20.00;16.20;;;;;27.09;7.62;99754.69;6262654;27;99636;-64
2022/03/13 11:22:36;;;;;;;;;18.40;17.00;;;;;27.36;7.54;99751.06;6269164;27;97720;-64
2022/03/13 11:25:40;;;;;;;;;12.50;12.00;;;;;27.71;6.88;99750.25;6274265;27;96705;-64
2022/03/13 11:28:45;;;;;;;;;12.00;11.00;;;;;27.89;6.83;99743.72;6273647;27;99087;-63
2022/03/13 11:31:53;;;;;;;;;13.50;12.00;;;;;27.94;6.17;99743.59;6274817;27;97995;-64
2022/03/13 11:35:24;;;;;;;;;13.00;12.00;;;;;28.09;6.22;99739.63;6274668;27;96888;-64
2022/03/13 11:38:29;;;;;;;;;14.25;13.00;;;;;27.67;6.28;99737.34;6272329;27;97665;-64
2022/03/13 11:41:37;;;;;;;;;12.40;11.40;;;;;27.61;6.71;99733.06;6273567;27;98998;-64
2022/03/13 11:44:46;;;;;;;;;15.00;14.40;;;;;27.60;6.63;99739.75;6275874;27;97523;-64
2022/03/13 11:47:49;;;;;;;;;15.20;14.00;;;;;26.82;6.37;99735.31;6281771;27;97282;-64
2022/03/13 11:50:55;;;;;;;;;16.00;14.60;;;;;26.51;6.92;99724.88;6279027;27;98027;-64
2022/03/13 11:54:00;;;;;;;;;17.00;15.40;;;;;26.52;7.27;99733.97;6280529;27;96916;-65
2022/03/13 11:57:13;;;;;;;;;21.00;18.00;;;;;26.72;7.67;99714.22;6280590;27;98022;-65
2022/03/13 12:00:32;;;;;;;;;25.00;21.00;;;;;26.99;8.08;99719.75;6278394;27;97012;-64
2022/03/13 12:03:36;;;;;;;;;24.00;22.00;;;;;26.49;7.52;99721.56;6279209;27;97297;-65
2022/03/13 12:06:41;;;;;;;;;20.40;19.00;;;;;26.61;7.94;99704.47;6274469;27;97898;-65
2022/03/13 12:09:46;;;;;;;;;24.75;21.75;;;;;26.33;8.13;99708.38;6276353;27;97523;-64
2022/03/13 12:13:05;;;;;;;;;25.40;23.40;;;;;26.13;8.79;99709.53;6285710;27;97154;-63
2022/03/13 12:16:13;;;;;;;;;24.00;21.67;;;;;25.64;8.19;99699.88;6283633;27;98333;-65
2022/03/13 12:19:19;;;;;;;;;27.00;23.00;;;;;25.16;8.64;99703.91;6273805;27;97660;-65
2022/03/13 12:22:25;;;;;;;;;25.00;22.60;;;;;25.31;8.80;99698.16;6274977;27;97674;-65
2022/03/13 12:25:31;;;;;;;;;22.20;20.00;;;;;25.14;8.99;99695.09;6279078;27;97927;-64
2022/03/13 12:28:36;;;;;;;;;22.75;21.75;;;;;25.32;8.76;99700.59;6274649;27;97420;-65
2022/03/13 12:31:41;;;;;;;;;23.75;21.00;;;;;25.22;8.46;99699.94;6275807;27;96824;-64
2022/03/13 12:34:44;;;;;;;;;24.60;20.00;;;;;25.05;8.55;99694.13;6278495;27;97360;-64
2022/03/13 12:37:55;;;;;;;;;25.00;21.00;;;;;24.23;9.08;99687.94;6295859;27;97015;-64
2022/03/13 12:41:03;;;;;;;;;21.80;18.80;;;;;24.17;9.48;99688.00;6277266;27;98408;-64
2022/03/13 12:44:06;;;;;;;;;25.40;23.00;;;;;24.05;8.84;99686.69;6283324;27;97447;-64
2022/03/13 12:47:10;;;;;;;;;24.80;21.00;;;;;24.01;9.33;99694.72;6283325;27;98013;-63
2022/03/13 12:50:14;;;;;;;;;21.20;19.00;;;;;23.96;9.18;99680.19;6292144;27;97831;-64
2022/03/13 12:53:26;;;;;;;;;20.00;18.00;;;;;23.99;9.37;99683.19;6280387;27;97331;-63
2022/03/13 12:56:31;;;;;;;;;21.60;18.40;;;;;23.31;8.69;99688.66;6280374;27;97498;-65
2022/03/13 12:59:38;;;;;;;;;18.67;16.00;;;;;22.98;9.06;99680.34;6277460;27;97038;-65
2022/03/13 13:02:43;;;;;;;;;14.00;13.00;;;;;22.70;8.74;99679.94;6274753;27;97260;-64
2022/03/13 13:05:50;;;;;;;;;17.00;14.00;;;;;22.51;8.79;99684.41;6282461;27;97296;-64
2022/03/13 13:08:53;;;;;;;;;15.00;13.00;;;;;21.87;8.97;99676.00;6277774;27;97229;-64
2022/03/13 13:12:01;;;;;;;;;15.60;15.00;;;;;21.44;9.63;99675.47;6279361;27;97398;-64
2022/03/13 13:15:08;;;;;;;;;14.00;14.00;;;;;21.08;9.22;99681.97;6282046;27;98582;-63
2022/03/13 13:18:12;;;;;;;;;15.00;11.00;;;;;21.33;9.84;99670.25;6282152;27;97926;-63
2022/03/13 13:21:15;;;;;;;;;19.00;15.60;;;;;21.54;9.83;99680.97;6262758;27;97607;-64
2022/03/13 13:24:25;;;;;;;;;16.40;14.00;;;;;20.60;9.76;99675.78;6279954;27;96803;-64
2022/03/13 13:27:34;;;;;;;;;17.00;15.00;;;;;20.68;10.28;99668.97;6282411;27;97366;-64
2022/03/13 13:30:38;;;;;;;;;16.00;14.00;;;;;20.70;10.14;99675.84;6280470;27;98035;-63
2022/03/13 13:33:42;;;;;;;;;19.50;18.00;;;;;20.58;10.56;99683.44;6280331;27;97395;-63
2022/03/13 13:36:46;;;;;;;;;16.00;15.00;;;;;20.01;11.04;99674.34;6279439;27;97573;-63
2022/03/13 13:39:49;;;;;;;;;16.40;15.00;;;;;19.88;10.85;99684.69;6277889;27;99046;-64
2022/03/13 13:42:59;;;;;;;;;16.20;15.20;;;;;19.71;10.90;99661.28;6279480;27;97719;-63
2022/03/13 13:46:06;;;;;;;;;18.60;16.60;;;;;19.03;11.22;99671.88;6280898;27;97425;-64
2022/03/13 13:49:11;;;;;;;;;16.00;13.00;;;;;19.19;11.39;99674.75;6291090;27;100143;-63
2022/03/13 13:52:14;;;;;;;;;15.80;14.00;;;;;18.85;11.34;99674.97;6276950;27;98190;-63
2022/03/13 13:55:22;;;;;;;;;19.40;16.40;;;;;18.90;11.31;99669.56;6280079;27;96584;-63
2022/03/13 13:58:30;;;;;;;;;18.20;17.20;;;;;19.03;11.47;99668.31;6279934;27;97436;-63
2022/03/13 14:01:34;;;;;;;;;18.80;17.00;;;;;18.86;11.59;99671.13;6276961;27;97686;-63
2022/03/13 14:04:39;;;;;;;;;18.00;16.00;;;;;18.66;11.35;99672.81;6274835;27;97455;-63
2022/03/13 14:07:42;;;;;;;;;18.00;15.60;;;;;18.67;11.25;99669.81;6274753;27;97784;-64
2022/03/13 14:10:46;;;;;;;;;17.60;15.00;;;;;18.38;11.27;99673.78;6272001;27;97333;-63
2022/03/13 14:13:52;;;;;;;;;14.00;13.00;;;;;18.55;11.19;99663.66;6277563;27;97409;-64
2022/03/13 14:16:55;;;;;;;;;17.25;15.25;;;;;18.70;11.06;99671.22;6282610;27;96617;-65
2022/03/13 14:19:59;;;;;;;;;19.00;17.00;;;;;18.73;11.46;99674.25;6279156;27;96880;-64